<?xml version="1.0" encoding="UTF-8" standalone="no" ?>
<gpx xmlns="http://www.topografix.com/GPX/1/1" xmlns:xsi="http://www.w3.org/2001/XMLSchema-instance" xsi:schemaLocation="http://www.topografix.com/GPX/1/1 http://www.topografix.com/GPX/1/1/gpx.xsd" version="1.1" creator="VisuGPX - https://www.visugpx.com">
  <metadata>
    <name>GILHOC SUR ORMEZE 1 Le Col de Mayres</name>
  </metadata>
  <trk>
    <name><![CDATA[CIRCUIT 1]]></name>
    <extensions>
      <line xmlns="http://www.topografix.com/GPX/gpx_style/0/2">
        <color>0000FF</color>
        <width>4</width>
      </line>
    </extensions>
    <trkseg>
      <trkpt lat="44.98602" lon="4.68799">
        <ele>410.62</ele>
        <time>2018-01-24T08:34:48Z</time>
      </trkpt>
      <trkpt lat="44.98602" lon="4.68798">
        <ele>410.62</ele>
        <time>2018-01-24T08:34:49Z</time>
      </trkpt>
      <trkpt lat="44.98602" lon="4.68798">
        <ele>424.08</ele>
        <time>2018-01-24T08:34:50Z</time>
      </trkpt>
      <trkpt lat="44.98602" lon="4.68798">
        <ele>424.08</ele>
        <time>2018-01-24T08:34:51Z</time>
      </trkpt>
      <trkpt lat="44.98601" lon="4.68798">
        <ele>428.89</ele>
        <time>2018-01-24T08:34:53Z</time>
      </trkpt>
      <trkpt lat="44.98601" lon="4.68798">
        <ele>432.25</ele>
        <time>2018-01-24T08:34:54Z</time>
      </trkpt>
      <trkpt lat="44.98601" lon="4.68798">
        <ele>435.13</ele>
        <time>2018-01-24T08:34:55Z</time>
      </trkpt>
      <trkpt lat="44.98601" lon="4.68798">
        <ele>438.02</ele>
        <time>2018-01-24T08:34:56Z</time>
      </trkpt>
      <trkpt lat="44.98601" lon="4.68798">
        <ele>444.27</ele>
        <time>2018-01-24T08:34:58Z</time>
      </trkpt>
      <trkpt lat="44.98602" lon="4.68798">
        <ele>449.07</ele>
        <time>2018-01-24T08:35:00Z</time>
      </trkpt>
      <trkpt lat="44.98602" lon="4.68797">
        <ele>453.88</ele>
        <time>2018-01-24T08:35:02Z</time>
      </trkpt>
      <trkpt lat="44.98602" lon="4.68797">
        <ele>458.21</ele>
        <time>2018-01-24T08:35:04Z</time>
      </trkpt>
      <trkpt lat="44.98603" lon="4.68798">
        <ele>463.01</ele>
        <time>2018-01-24T08:35:06Z</time>
      </trkpt>
      <trkpt lat="44.98603" lon="4.68798">
        <ele>466.86</ele>
        <time>2018-01-24T08:35:08Z</time>
      </trkpt>
      <trkpt lat="44.98603" lon="4.68798">
        <ele>470.22</ele>
        <time>2018-01-24T08:35:09Z</time>
      </trkpt>
      <trkpt lat="44.98603" lon="4.68797">
        <ele>470.22</ele>
        <time>2018-01-24T08:35:10Z</time>
      </trkpt>
      <trkpt lat="44.98603" lon="4.68797">
        <ele>474.07</ele>
        <time>2018-01-24T08:35:12Z</time>
      </trkpt>
      <trkpt lat="44.98605" lon="4.68796">
        <ele>476.95</ele>
        <time>2018-01-24T08:35:14Z</time>
      </trkpt>
      <trkpt lat="44.98606" lon="4.68797">
        <ele>480.32</ele>
        <time>2018-01-24T08:35:16Z</time>
      </trkpt>
      <trkpt lat="44.98607" lon="4.68799">
        <ele>484.16</ele>
        <time>2018-01-24T08:35:19Z</time>
      </trkpt>
      <trkpt lat="44.98608" lon="4.68801">
        <ele>485.12</ele>
        <time>2018-01-24T08:35:20Z</time>
      </trkpt>
      <trkpt lat="44.98612" lon="4.68807">
        <ele>489.45</ele>
        <time>2018-01-24T08:35:24Z</time>
      </trkpt>
      <trkpt lat="44.98615" lon="4.68814">
        <ele>492.81</ele>
        <time>2018-01-24T08:35:29Z</time>
      </trkpt>
      <trkpt lat="44.98615" lon="4.68822">
        <ele>495.22</ele>
        <time>2018-01-24T08:35:34Z</time>
      </trkpt>
      <trkpt lat="44.98616" lon="4.68826">
        <ele>495.7</ele>
        <time>2018-01-24T08:35:37Z</time>
      </trkpt>
      <trkpt lat="44.98622" lon="4.68845">
        <ele>495.7</ele>
        <time>2018-01-24T08:35:48Z</time>
      </trkpt>
      <trkpt lat="44.98632" lon="4.6885">
        <ele>495.22</ele>
        <time>2018-01-24T08:35:55Z</time>
      </trkpt>
      <trkpt lat="44.98644" lon="4.68857">
        <ele>493.77</ele>
        <time>2018-01-24T08:36:02Z</time>
      </trkpt>
      <trkpt lat="44.98645" lon="4.68858">
        <ele>493.77</ele>
        <time>2018-01-24T08:36:03Z</time>
      </trkpt>
      <trkpt lat="44.98649" lon="4.68864">
        <ele>493.29</ele>
        <time>2018-01-24T08:36:07Z</time>
      </trkpt>
      <trkpt lat="44.98649" lon="4.68866">
        <ele>493.29</ele>
        <time>2018-01-24T08:36:08Z</time>
      </trkpt>
      <trkpt lat="44.98649" lon="4.68868">
        <ele>492.81</ele>
        <time>2018-01-24T08:36:09Z</time>
      </trkpt>
      <trkpt lat="44.98651" lon="4.68893">
        <ele>492.33</ele>
        <time>2018-01-24T08:36:20Z</time>
      </trkpt>
      <trkpt lat="44.98653" lon="4.68898">
        <ele>490.89</ele>
        <time>2018-01-24T08:36:27Z</time>
      </trkpt>
      <trkpt lat="44.98653" lon="4.68905">
        <ele>488.01</ele>
        <time>2018-01-24T08:36:35Z</time>
      </trkpt>
      <trkpt lat="44.98654" lon="4.68909">
        <ele>487.53</ele>
        <time>2018-01-24T08:36:37Z</time>
      </trkpt>
      <trkpt lat="44.98652" lon="4.68926">
        <ele>486.08</ele>
        <time>2018-01-24T08:36:47Z</time>
      </trkpt>
      <trkpt lat="44.98647" lon="4.68936">
        <ele>485.6</ele>
        <time>2018-01-24T08:36:54Z</time>
      </trkpt>
      <trkpt lat="44.98647" lon="4.68938">
        <ele>485.6</ele>
        <time>2018-01-24T08:36:55Z</time>
      </trkpt>
      <trkpt lat="44.98648" lon="4.6894">
        <ele>485.12</ele>
        <time>2018-01-24T08:36:56Z</time>
      </trkpt>
      <trkpt lat="44.98648" lon="4.68942">
        <ele>484.64</ele>
        <time>2018-01-24T08:36:57Z</time>
      </trkpt>
      <trkpt lat="44.98649" lon="4.68944">
        <ele>484.64</ele>
        <time>2018-01-24T08:36:58Z</time>
      </trkpt>
      <trkpt lat="44.9865" lon="4.68946">
        <ele>484.16</ele>
        <time>2018-01-24T08:36:59Z</time>
      </trkpt>
      <trkpt lat="44.98651" lon="4.68948">
        <ele>484.16</ele>
        <time>2018-01-24T08:37:00Z</time>
      </trkpt>
      <trkpt lat="44.98652" lon="4.68949">
        <ele>484.16</ele>
        <time>2018-01-24T08:37:01Z</time>
      </trkpt>
      <trkpt lat="44.98661" lon="4.68962">
        <ele>483.68</ele>
        <time>2018-01-24T08:37:09Z</time>
      </trkpt>
      <trkpt lat="44.98667" lon="4.68976">
        <ele>483.68</ele>
        <time>2018-01-24T08:37:17Z</time>
      </trkpt>
      <trkpt lat="44.98672" lon="4.68995">
        <ele>484.16</ele>
        <time>2018-01-24T08:37:26Z</time>
      </trkpt>
      <trkpt lat="44.98676" lon="4.6901">
        <ele>484.64</ele>
        <time>2018-01-24T08:37:33Z</time>
      </trkpt>
      <trkpt lat="44.98684" lon="4.69029">
        <ele>485.6</ele>
        <time>2018-01-24T08:37:44Z</time>
      </trkpt>
      <trkpt lat="44.98695" lon="4.69035">
        <ele>487.53</ele>
        <time>2018-01-24T08:37:53Z</time>
      </trkpt>
      <trkpt lat="44.98703" lon="4.6904">
        <ele>488.97</ele>
        <time>2018-01-24T08:38:00Z</time>
      </trkpt>
      <trkpt lat="44.98714" lon="4.69042">
        <ele>490.89</ele>
        <time>2018-01-24T08:38:09Z</time>
      </trkpt>
      <trkpt lat="44.98724" lon="4.69046">
        <ele>493.29</ele>
        <time>2018-01-24T08:38:18Z</time>
      </trkpt>
      <trkpt lat="44.98734" lon="4.69049">
        <ele>495.22</ele>
        <time>2018-01-24T08:38:27Z</time>
      </trkpt>
      <trkpt lat="44.98748" lon="4.6906">
        <ele>497.14</ele>
        <time>2018-01-24T08:38:39Z</time>
      </trkpt>
      <trkpt lat="44.98754" lon="4.69074">
        <ele>498.58</ele>
        <time>2018-01-24T08:38:47Z</time>
      </trkpt>
      <trkpt lat="44.98756" lon="4.69088">
        <ele>500.02</ele>
        <time>2018-01-24T08:38:55Z</time>
      </trkpt>
      <trkpt lat="44.98757" lon="4.69103">
        <ele>501.46</ele>
        <time>2018-01-24T08:39:03Z</time>
      </trkpt>
      <trkpt lat="44.98758" lon="4.6911">
        <ele>502.43</ele>
        <time>2018-01-24T08:39:07Z</time>
      </trkpt>
      <trkpt lat="44.98761" lon="4.69124">
        <ele>503.87</ele>
        <time>2018-01-24T08:39:16Z</time>
      </trkpt>
      <trkpt lat="44.98762" lon="4.69125">
        <ele>504.83</ele>
        <time>2018-01-24T08:39:17Z</time>
      </trkpt>
      <trkpt lat="44.98763" lon="4.69126">
        <ele>504.35</ele>
        <time>2018-01-24T08:39:18Z</time>
      </trkpt>
      <trkpt lat="44.98764" lon="4.69127">
        <ele>504.83</ele>
        <time>2018-01-24T08:39:19Z</time>
      </trkpt>
      <trkpt lat="44.98765" lon="4.69129">
        <ele>504.83</ele>
        <time>2018-01-24T08:39:20Z</time>
      </trkpt>
      <trkpt lat="44.98765" lon="4.69132">
        <ele>504.83</ele>
        <time>2018-01-24T08:39:21Z</time>
      </trkpt>
      <trkpt lat="44.98769" lon="4.69147">
        <ele>506.75</ele>
        <time>2018-01-24T08:39:29Z</time>
      </trkpt>
      <trkpt lat="44.98776" lon="4.6916">
        <ele>508.19</ele>
        <time>2018-01-24T08:39:37Z</time>
      </trkpt>
      <trkpt lat="44.98778" lon="4.69164">
        <ele>508.67</ele>
        <time>2018-01-24T08:39:43Z</time>
      </trkpt>
      <trkpt lat="44.9878" lon="4.69169">
        <ele>508.67</ele>
        <time>2018-01-24T08:39:50Z</time>
      </trkpt>
      <trkpt lat="44.98783" lon="4.69185">
        <ele>509.64</ele>
        <time>2018-01-24T08:40:00Z</time>
      </trkpt>
      <trkpt lat="44.98784" lon="4.6919">
        <ele>509.64</ele>
        <time>2018-01-24T08:40:07Z</time>
      </trkpt>
      <trkpt lat="44.98792" lon="4.69211">
        <ele>510.6</ele>
        <time>2018-01-24T08:40:18Z</time>
      </trkpt>
      <trkpt lat="44.98797" lon="4.69236">
        <ele>511.08</ele>
        <time>2018-01-24T08:40:30Z</time>
      </trkpt>
      <trkpt lat="44.98797" lon="4.69258">
        <ele>511.08</ele>
        <time>2018-01-24T08:40:41Z</time>
      </trkpt>
      <trkpt lat="44.98791" lon="4.69278">
        <ele>510.6</ele>
        <time>2018-01-24T08:40:51Z</time>
      </trkpt>
      <trkpt lat="44.98782" lon="4.69294">
        <ele>510.6</ele>
        <time>2018-01-24T08:41:01Z</time>
      </trkpt>
      <trkpt lat="44.98775" lon="4.69308">
        <ele>511.56</ele>
        <time>2018-01-24T08:41:10Z</time>
      </trkpt>
      <trkpt lat="44.98774" lon="4.6933">
        <ele>510.6</ele>
        <time>2018-01-24T08:41:21Z</time>
      </trkpt>
      <trkpt lat="44.98774" lon="4.69334">
        <ele>511.08</ele>
        <time>2018-01-24T08:41:23Z</time>
      </trkpt>
      <trkpt lat="44.98774" lon="4.69336">
        <ele>511.08</ele>
        <time>2018-01-24T08:41:24Z</time>
      </trkpt>
      <trkpt lat="44.98773" lon="4.69338">
        <ele>510.6</ele>
        <time>2018-01-24T08:41:25Z</time>
      </trkpt>
      <trkpt lat="44.98767" lon="4.69358">
        <ele>510.6</ele>
        <time>2018-01-24T08:41:35Z</time>
      </trkpt>
      <trkpt lat="44.98762" lon="4.69379">
        <ele>510.12</ele>
        <time>2018-01-24T08:41:46Z</time>
      </trkpt>
      <trkpt lat="44.9876" lon="4.69395">
        <ele>510.12</ele>
        <time>2018-01-24T08:41:54Z</time>
      </trkpt>
      <trkpt lat="44.9876" lon="4.69397">
        <ele>510.6</ele>
        <time>2018-01-24T08:41:55Z</time>
      </trkpt>
      <trkpt lat="44.98761" lon="4.69409">
        <ele>510.6</ele>
        <time>2018-01-24T08:42:02Z</time>
      </trkpt>
      <trkpt lat="44.98764" lon="4.69423">
        <ele>511.08</ele>
        <time>2018-01-24T08:42:09Z</time>
      </trkpt>
      <trkpt lat="44.98764" lon="4.6943">
        <ele>511.08</ele>
        <time>2018-01-24T08:42:13Z</time>
      </trkpt>
      <trkpt lat="44.98765" lon="4.69432">
        <ele>510.6</ele>
        <time>2018-01-24T08:42:14Z</time>
      </trkpt>
      <trkpt lat="44.98765" lon="4.69437">
        <ele>511.56</ele>
        <time>2018-01-24T08:42:17Z</time>
      </trkpt>
      <trkpt lat="44.98763" lon="4.69453">
        <ele>510.12</ele>
        <time>2018-01-24T08:42:26Z</time>
      </trkpt>
      <trkpt lat="44.98758" lon="4.69461">
        <ele>510.12</ele>
        <time>2018-01-24T08:42:33Z</time>
      </trkpt>
      <trkpt lat="44.98756" lon="4.69464">
        <ele>509.64</ele>
        <time>2018-01-24T08:42:34Z</time>
      </trkpt>
      <trkpt lat="44.98755" lon="4.69466">
        <ele>510.12</ele>
        <time>2018-01-24T08:42:35Z</time>
      </trkpt>
      <trkpt lat="44.98755" lon="4.69467">
        <ele>509.64</ele>
        <time>2018-01-24T08:42:36Z</time>
      </trkpt>
      <trkpt lat="44.98754" lon="4.69468">
        <ele>509.64</ele>
        <time>2018-01-24T08:42:37Z</time>
      </trkpt>
      <trkpt lat="44.98748" lon="4.69475">
        <ele>509.16</ele>
        <time>2018-01-24T08:42:42Z</time>
      </trkpt>
      <trkpt lat="44.98737" lon="4.69488">
        <ele>508.19</ele>
        <time>2018-01-24T08:42:51Z</time>
      </trkpt>
      <trkpt lat="44.98733" lon="4.69494">
        <ele>508.67</ele>
        <time>2018-01-24T08:42:54Z</time>
      </trkpt>
      <trkpt lat="44.98732" lon="4.69496">
        <ele>508.19</ele>
        <time>2018-01-24T08:42:55Z</time>
      </trkpt>
      <trkpt lat="44.98731" lon="4.69499">
        <ele>508.19</ele>
        <time>2018-01-24T08:42:56Z</time>
      </trkpt>
      <trkpt lat="44.98729" lon="4.69501">
        <ele>508.19</ele>
        <time>2018-01-24T08:42:57Z</time>
      </trkpt>
      <trkpt lat="44.98729" lon="4.69504">
        <ele>508.19</ele>
        <time>2018-01-24T08:42:58Z</time>
      </trkpt>
      <trkpt lat="44.98728" lon="4.69506">
        <ele>508.19</ele>
        <time>2018-01-24T08:42:59Z</time>
      </trkpt>
      <trkpt lat="44.98728" lon="4.69508">
        <ele>508.19</ele>
        <time>2018-01-24T08:43:00Z</time>
      </trkpt>
      <trkpt lat="44.98728" lon="4.69511">
        <ele>508.19</ele>
        <time>2018-01-24T08:43:01Z</time>
      </trkpt>
      <trkpt lat="44.9873" lon="4.69516">
        <ele>508.19</ele>
        <time>2018-01-24T08:43:06Z</time>
      </trkpt>
      <trkpt lat="44.98732" lon="4.69518">
        <ele>508.19</ele>
        <time>2018-01-24T08:43:08Z</time>
      </trkpt>
      <trkpt lat="44.98738" lon="4.69522">
        <ele>509.64</ele>
        <time>2018-01-24T08:43:15Z</time>
      </trkpt>
      <trkpt lat="44.98746" lon="4.69523">
        <ele>511.08</ele>
        <time>2018-01-24T08:43:21Z</time>
      </trkpt>
      <trkpt lat="44.98752" lon="4.69524">
        <ele>512.04</ele>
        <time>2018-01-24T08:43:26Z</time>
      </trkpt>
      <trkpt lat="44.98764" lon="4.69526">
        <ele>513.96</ele>
        <time>2018-01-24T08:43:33Z</time>
      </trkpt>
      <trkpt lat="44.98774" lon="4.69528">
        <ele>515.4</ele>
        <time>2018-01-24T08:43:41Z</time>
      </trkpt>
      <trkpt lat="44.98777" lon="4.69529">
        <ele>515.88</ele>
        <time>2018-01-24T08:43:45Z</time>
      </trkpt>
      <trkpt lat="44.98781" lon="4.6953">
        <ele>516.85</ele>
        <time>2018-01-24T08:43:48Z</time>
      </trkpt>
      <trkpt lat="44.98786" lon="4.6953">
        <ele>517.81</ele>
        <time>2018-01-24T08:43:53Z</time>
      </trkpt>
      <trkpt lat="44.98792" lon="4.69528">
        <ele>519.73</ele>
        <time>2018-01-24T08:44:00Z</time>
      </trkpt>
      <trkpt lat="44.988" lon="4.6953">
        <ele>520.69</ele>
        <time>2018-01-24T08:44:07Z</time>
      </trkpt>
      <trkpt lat="44.98801" lon="4.6953">
        <ele>521.17</ele>
        <time>2018-01-24T08:44:08Z</time>
      </trkpt>
      <trkpt lat="44.98804" lon="4.69532">
        <ele>521.65</ele>
        <time>2018-01-24T08:44:10Z</time>
      </trkpt>
      <trkpt lat="44.98813" lon="4.69537">
        <ele>522.13</ele>
        <time>2018-01-24T08:44:17Z</time>
      </trkpt>
      <trkpt lat="44.9882" lon="4.69541">
        <ele>522.13</ele>
        <time>2018-01-24T08:44:23Z</time>
      </trkpt>
      <trkpt lat="44.98828" lon="4.69545">
        <ele>523.09</ele>
        <time>2018-01-24T08:44:27Z</time>
      </trkpt>
      <trkpt lat="44.98838" lon="4.69549">
        <ele>524.06</ele>
        <time>2018-01-24T08:44:34Z</time>
      </trkpt>
      <trkpt lat="44.98851" lon="4.69558">
        <ele>525.02</ele>
        <time>2018-01-24T08:44:42Z</time>
      </trkpt>
      <trkpt lat="44.98863" lon="4.69564">
        <ele>526.46</ele>
        <time>2018-01-24T08:44:51Z</time>
      </trkpt>
      <trkpt lat="44.98878" lon="4.69568">
        <ele>527.9</ele>
        <time>2018-01-24T08:45:01Z</time>
      </trkpt>
      <trkpt lat="44.98894" lon="4.69577">
        <ele>529.34</ele>
        <time>2018-01-24T08:45:14Z</time>
      </trkpt>
      <trkpt lat="44.98907" lon="4.69584">
        <ele>529.34</ele>
        <time>2018-01-24T08:45:24Z</time>
      </trkpt>
      <trkpt lat="44.9892" lon="4.69593">
        <ele>529.34</ele>
        <time>2018-01-24T08:45:35Z</time>
      </trkpt>
      <trkpt lat="44.98922" lon="4.69593">
        <ele>529.82</ele>
        <time>2018-01-24T08:45:41Z</time>
      </trkpt>
      <trkpt lat="44.98922" lon="4.69594">
        <ele>530.3</ele>
        <time>2018-01-24T08:45:57Z</time>
      </trkpt>
      <trkpt lat="44.98923" lon="4.69595">
        <ele>530.3</ele>
        <time>2018-01-24T08:45:58Z</time>
      </trkpt>
      <trkpt lat="44.98924" lon="4.69596">
        <ele>530.79</ele>
        <time>2018-01-24T08:45:59Z</time>
      </trkpt>
      <trkpt lat="44.98925" lon="4.69598">
        <ele>530.3</ele>
        <time>2018-01-24T08:46:00Z</time>
      </trkpt>
      <trkpt lat="44.98926" lon="4.69599">
        <ele>530.3</ele>
        <time>2018-01-24T08:46:01Z</time>
      </trkpt>
      <trkpt lat="44.98927" lon="4.696">
        <ele>530.79</ele>
        <time>2018-01-24T08:46:02Z</time>
      </trkpt>
      <trkpt lat="44.98938" lon="4.69609">
        <ele>531.27</ele>
        <time>2018-01-24T08:46:10Z</time>
      </trkpt>
      <trkpt lat="44.98952" lon="4.69625">
        <ele>531.75</ele>
        <time>2018-01-24T08:46:22Z</time>
      </trkpt>
      <trkpt lat="44.9896" lon="4.69647">
        <ele>531.27</ele>
        <time>2018-01-24T08:46:34Z</time>
      </trkpt>
      <trkpt lat="44.9896" lon="4.6967">
        <ele>530.79</ele>
        <time>2018-01-24T08:46:45Z</time>
      </trkpt>
      <trkpt lat="44.98958" lon="4.69689">
        <ele>529.82</ele>
        <time>2018-01-24T08:46:55Z</time>
      </trkpt>
      <trkpt lat="44.9896" lon="4.697">
        <ele>528.86</ele>
        <time>2018-01-24T08:47:01Z</time>
      </trkpt>
      <trkpt lat="44.98966" lon="4.69709">
        <ele>528.86</ele>
        <time>2018-01-24T08:47:07Z</time>
      </trkpt>
      <trkpt lat="44.98967" lon="4.6971">
        <ele>529.34</ele>
        <time>2018-01-24T08:47:08Z</time>
      </trkpt>
      <trkpt lat="44.98969" lon="4.69711">
        <ele>528.86</ele>
        <time>2018-01-24T08:47:09Z</time>
      </trkpt>
      <trkpt lat="44.9897" lon="4.69712">
        <ele>528.86</ele>
        <time>2018-01-24T08:47:10Z</time>
      </trkpt>
      <trkpt lat="44.98971" lon="4.69713">
        <ele>528.86</ele>
        <time>2018-01-24T08:47:11Z</time>
      </trkpt>
      <trkpt lat="44.98972" lon="4.69714">
        <ele>528.86</ele>
        <time>2018-01-24T08:47:12Z</time>
      </trkpt>
      <trkpt lat="44.98973" lon="4.69715">
        <ele>528.38</ele>
        <time>2018-01-24T08:47:13Z</time>
      </trkpt>
      <trkpt lat="44.98974" lon="4.69716">
        <ele>528.38</ele>
        <time>2018-01-24T08:47:14Z</time>
      </trkpt>
      <trkpt lat="44.98976" lon="4.69717">
        <ele>528.86</ele>
        <time>2018-01-24T08:47:15Z</time>
      </trkpt>
      <trkpt lat="44.98977" lon="4.69718">
        <ele>528.38</ele>
        <time>2018-01-24T08:47:16Z</time>
      </trkpt>
      <trkpt lat="44.98979" lon="4.69719">
        <ele>527.9</ele>
        <time>2018-01-24T08:47:17Z</time>
      </trkpt>
      <trkpt lat="44.9898" lon="4.6972">
        <ele>527.9</ele>
        <time>2018-01-24T08:47:18Z</time>
      </trkpt>
      <trkpt lat="44.98981" lon="4.69721">
        <ele>528.38</ele>
        <time>2018-01-24T08:47:19Z</time>
      </trkpt>
      <trkpt lat="44.98982" lon="4.69722">
        <ele>527.9</ele>
        <time>2018-01-24T08:47:20Z</time>
      </trkpt>
      <trkpt lat="44.98983" lon="4.69723">
        <ele>527.42</ele>
        <time>2018-01-24T08:47:21Z</time>
      </trkpt>
      <trkpt lat="44.98985" lon="4.69724">
        <ele>527.9</ele>
        <time>2018-01-24T08:47:22Z</time>
      </trkpt>
      <trkpt lat="44.98992" lon="4.69728">
        <ele>527.42</ele>
        <time>2018-01-24T08:47:28Z</time>
      </trkpt>
      <trkpt lat="44.99002" lon="4.69737">
        <ele>526.46</ele>
        <time>2018-01-24T08:47:35Z</time>
      </trkpt>
      <trkpt lat="44.99014" lon="4.69747">
        <ele>525.98</ele>
        <time>2018-01-24T08:47:43Z</time>
      </trkpt>
      <trkpt lat="44.99024" lon="4.69759">
        <ele>525.5</ele>
        <time>2018-01-24T08:47:52Z</time>
      </trkpt>
      <trkpt lat="44.99036" lon="4.69773">
        <ele>525.02</ele>
        <time>2018-01-24T08:48:02Z</time>
      </trkpt>
      <trkpt lat="44.99045" lon="4.69783">
        <ele>526.46</ele>
        <time>2018-01-24T08:48:11Z</time>
      </trkpt>
      <trkpt lat="44.99052" lon="4.69788">
        <ele>526.46</ele>
        <time>2018-01-24T08:48:18Z</time>
      </trkpt>
      <trkpt lat="44.99056" lon="4.69794">
        <ele>526.94</ele>
        <time>2018-01-24T08:48:22Z</time>
      </trkpt>
      <trkpt lat="44.99058" lon="4.69797">
        <ele>526.94</ele>
        <time>2018-01-24T08:48:24Z</time>
      </trkpt>
      <trkpt lat="44.9906" lon="4.69798">
        <ele>526.94</ele>
        <time>2018-01-24T08:48:25Z</time>
      </trkpt>
      <trkpt lat="44.99061" lon="4.69799">
        <ele>526.94</ele>
        <time>2018-01-24T08:48:26Z</time>
      </trkpt>
      <trkpt lat="44.99062" lon="4.69801">
        <ele>527.42</ele>
        <time>2018-01-24T08:48:27Z</time>
      </trkpt>
      <trkpt lat="44.99064" lon="4.69803">
        <ele>527.42</ele>
        <time>2018-01-24T08:48:28Z</time>
      </trkpt>
      <trkpt lat="44.99073" lon="4.69817">
        <ele>528.38</ele>
        <time>2018-01-24T08:48:37Z</time>
      </trkpt>
      <trkpt lat="44.99082" lon="4.69831">
        <ele>529.34</ele>
        <time>2018-01-24T08:48:46Z</time>
      </trkpt>
      <trkpt lat="44.9909" lon="4.69846">
        <ele>530.3</ele>
        <time>2018-01-24T08:48:55Z</time>
      </trkpt>
      <trkpt lat="44.99095" lon="4.69857">
        <ele>530.79</ele>
        <time>2018-01-24T08:49:02Z</time>
      </trkpt>
      <trkpt lat="44.99102" lon="4.69872">
        <ele>530.79</ele>
        <time>2018-01-24T08:49:11Z</time>
      </trkpt>
      <trkpt lat="44.99104" lon="4.69875">
        <ele>530.79</ele>
        <time>2018-01-24T08:49:13Z</time>
      </trkpt>
      <trkpt lat="44.99105" lon="4.69876">
        <ele>531.27</ele>
        <time>2018-01-24T08:49:14Z</time>
      </trkpt>
      <trkpt lat="44.99106" lon="4.69878">
        <ele>530.79</ele>
        <time>2018-01-24T08:49:15Z</time>
      </trkpt>
      <trkpt lat="44.99107" lon="4.69879">
        <ele>530.79</ele>
        <time>2018-01-24T08:49:16Z</time>
      </trkpt>
      <trkpt lat="44.99107" lon="4.69881">
        <ele>530.79</ele>
        <time>2018-01-24T08:49:17Z</time>
      </trkpt>
      <trkpt lat="44.99108" lon="4.69883">
        <ele>531.27</ele>
        <time>2018-01-24T08:49:18Z</time>
      </trkpt>
      <trkpt lat="44.99112" lon="4.69893">
        <ele>531.27</ele>
        <time>2018-01-24T08:49:24Z</time>
      </trkpt>
      <trkpt lat="44.99119" lon="4.69911">
        <ele>530.79</ele>
        <time>2018-01-24T08:49:34Z</time>
      </trkpt>
      <trkpt lat="44.9912" lon="4.69927">
        <ele>531.27</ele>
        <time>2018-01-24T08:49:42Z</time>
      </trkpt>
      <trkpt lat="44.9912" lon="4.69933">
        <ele>531.75</ele>
        <time>2018-01-24T08:49:45Z</time>
      </trkpt>
      <trkpt lat="44.9912" lon="4.69939">
        <ele>532.23</ele>
        <time>2018-01-24T08:49:48Z</time>
      </trkpt>
      <trkpt lat="44.9912" lon="4.69941">
        <ele>532.23</ele>
        <time>2018-01-24T08:49:49Z</time>
      </trkpt>
      <trkpt lat="44.9912" lon="4.69943">
        <ele>532.23</ele>
        <time>2018-01-24T08:49:50Z</time>
      </trkpt>
      <trkpt lat="44.99121" lon="4.69945">
        <ele>532.23</ele>
        <time>2018-01-24T08:49:51Z</time>
      </trkpt>
      <trkpt lat="44.99121" lon="4.69946">
        <ele>532.23</ele>
        <time>2018-01-24T08:49:52Z</time>
      </trkpt>
      <trkpt lat="44.99122" lon="4.6995">
        <ele>531.75</ele>
        <time>2018-01-24T08:49:54Z</time>
      </trkpt>
      <trkpt lat="44.99122" lon="4.69952">
        <ele>532.71</ele>
        <time>2018-01-24T08:49:55Z</time>
      </trkpt>
      <trkpt lat="44.99122" lon="4.69954">
        <ele>532.71</ele>
        <time>2018-01-24T08:49:56Z</time>
      </trkpt>
      <trkpt lat="44.99122" lon="4.69956">
        <ele>532.71</ele>
        <time>2018-01-24T08:49:57Z</time>
      </trkpt>
      <trkpt lat="44.99122" lon="4.69958">
        <ele>532.71</ele>
        <time>2018-01-24T08:49:58Z</time>
      </trkpt>
      <trkpt lat="44.99121" lon="4.6996">
        <ele>533.19</ele>
        <time>2018-01-24T08:49:59Z</time>
      </trkpt>
      <trkpt lat="44.99122" lon="4.69962">
        <ele>533.19</ele>
        <time>2018-01-24T08:50:00Z</time>
      </trkpt>
      <trkpt lat="44.99122" lon="4.69969">
        <ele>533.67</ele>
        <time>2018-01-24T08:50:04Z</time>
      </trkpt>
      <trkpt lat="44.99122" lon="4.6997">
        <ele>533.67</ele>
        <time>2018-01-24T08:50:05Z</time>
      </trkpt>
      <trkpt lat="44.99123" lon="4.69972">
        <ele>534.15</ele>
        <time>2018-01-24T08:50:06Z</time>
      </trkpt>
      <trkpt lat="44.99123" lon="4.69974">
        <ele>534.15</ele>
        <time>2018-01-24T08:50:07Z</time>
      </trkpt>
      <trkpt lat="44.99124" lon="4.69976">
        <ele>534.63</ele>
        <time>2018-01-24T08:50:09Z</time>
      </trkpt>
      <trkpt lat="44.99125" lon="4.69978">
        <ele>535.11</ele>
        <time>2018-01-24T08:50:10Z</time>
      </trkpt>
      <trkpt lat="44.99126" lon="4.69979">
        <ele>534.63</ele>
        <time>2018-01-24T08:50:11Z</time>
      </trkpt>
      <trkpt lat="44.99127" lon="4.6998">
        <ele>534.63</ele>
        <time>2018-01-24T08:50:12Z</time>
      </trkpt>
      <trkpt lat="44.99128" lon="4.69982">
        <ele>534.63</ele>
        <time>2018-01-24T08:50:13Z</time>
      </trkpt>
      <trkpt lat="44.99128" lon="4.69983">
        <ele>534.63</ele>
        <time>2018-01-24T08:50:14Z</time>
      </trkpt>
      <trkpt lat="44.99128" lon="4.69985">
        <ele>534.63</ele>
        <time>2018-01-24T08:50:15Z</time>
      </trkpt>
      <trkpt lat="44.9913" lon="4.69986">
        <ele>534.63</ele>
        <time>2018-01-24T08:50:16Z</time>
      </trkpt>
      <trkpt lat="44.99132" lon="4.69987">
        <ele>534.63</ele>
        <time>2018-01-24T08:50:17Z</time>
      </trkpt>
      <trkpt lat="44.99136" lon="4.69992">
        <ele>535.59</ele>
        <time>2018-01-24T08:50:22Z</time>
      </trkpt>
      <trkpt lat="44.99137" lon="4.69994">
        <ele>536.07</ele>
        <time>2018-01-24T08:50:23Z</time>
      </trkpt>
      <trkpt lat="44.99131" lon="4.70012">
        <ele>537.03</ele>
        <time>2018-01-24T08:50:29Z</time>
      </trkpt>
      <trkpt lat="44.99131" lon="4.70019">
        <ele>537.51</ele>
        <time>2018-01-24T08:50:32Z</time>
      </trkpt>
      <trkpt lat="44.99138" lon="4.70034">
        <ele>538.96</ele>
        <time>2018-01-24T08:50:40Z</time>
      </trkpt>
      <trkpt lat="44.99141" lon="4.7005">
        <ele>540.88</ele>
        <time>2018-01-24T08:50:49Z</time>
      </trkpt>
      <trkpt lat="44.99147" lon="4.70063">
        <ele>541.36</ele>
        <time>2018-01-24T08:50:57Z</time>
      </trkpt>
      <trkpt lat="44.99153" lon="4.70074">
        <ele>542.32</ele>
        <time>2018-01-24T08:51:05Z</time>
      </trkpt>
      <trkpt lat="44.99156" lon="4.70078">
        <ele>542.8</ele>
        <time>2018-01-24T08:51:08Z</time>
      </trkpt>
      <trkpt lat="44.99157" lon="4.70079">
        <ele>542.8</ele>
        <time>2018-01-24T08:51:09Z</time>
      </trkpt>
      <trkpt lat="44.99161" lon="4.70092">
        <ele>544.72</ele>
        <time>2018-01-24T08:51:16Z</time>
      </trkpt>
      <trkpt lat="44.99162" lon="4.70104">
        <ele>545.2</ele>
        <time>2018-01-24T08:51:23Z</time>
      </trkpt>
      <trkpt lat="44.99163" lon="4.70113">
        <ele>546.17</ele>
        <time>2018-01-24T08:51:29Z</time>
      </trkpt>
      <trkpt lat="44.99159" lon="4.70122">
        <ele>547.13</ele>
        <time>2018-01-24T08:51:35Z</time>
      </trkpt>
      <trkpt lat="44.99155" lon="4.70131">
        <ele>549.05</ele>
        <time>2018-01-24T08:51:43Z</time>
      </trkpt>
      <trkpt lat="44.99152" lon="4.70138">
        <ele>549.05</ele>
        <time>2018-01-24T08:51:49Z</time>
      </trkpt>
      <trkpt lat="44.9915" lon="4.70146">
        <ele>550.01</ele>
        <time>2018-01-24T08:51:55Z</time>
      </trkpt>
      <trkpt lat="44.99148" lon="4.70154">
        <ele>550.97</ele>
        <time>2018-01-24T08:52:00Z</time>
      </trkpt>
      <trkpt lat="44.99147" lon="4.70158">
        <ele>551.45</ele>
        <time>2018-01-24T08:52:02Z</time>
      </trkpt>
      <trkpt lat="44.99146" lon="4.70161">
        <ele>551.45</ele>
        <time>2018-01-24T08:52:04Z</time>
      </trkpt>
      <trkpt lat="44.99144" lon="4.70175">
        <ele>553.38</ele>
        <time>2018-01-24T08:52:12Z</time>
      </trkpt>
      <trkpt lat="44.99144" lon="4.7018">
        <ele>552.9</ele>
        <time>2018-01-24T08:52:15Z</time>
      </trkpt>
      <trkpt lat="44.99144" lon="4.70182">
        <ele>553.38</ele>
        <time>2018-01-24T08:52:16Z</time>
      </trkpt>
      <trkpt lat="44.99144" lon="4.70184">
        <ele>553.38</ele>
        <time>2018-01-24T08:52:17Z</time>
      </trkpt>
      <trkpt lat="44.99142" lon="4.7019">
        <ele>553.86</ele>
        <time>2018-01-24T08:52:20Z</time>
      </trkpt>
      <trkpt lat="44.99142" lon="4.70192">
        <ele>553.86</ele>
        <time>2018-01-24T08:52:21Z</time>
      </trkpt>
      <trkpt lat="44.99143" lon="4.70194">
        <ele>553.86</ele>
        <time>2018-01-24T08:52:22Z</time>
      </trkpt>
      <trkpt lat="44.99145" lon="4.70196">
        <ele>553.86</ele>
        <time>2018-01-24T08:52:23Z</time>
      </trkpt>
      <trkpt lat="44.99146" lon="4.70197">
        <ele>553.86</ele>
        <time>2018-01-24T08:52:24Z</time>
      </trkpt>
      <trkpt lat="44.99147" lon="4.70199">
        <ele>553.86</ele>
        <time>2018-01-24T08:52:25Z</time>
      </trkpt>
      <trkpt lat="44.99149" lon="4.70203">
        <ele>554.34</ele>
        <time>2018-01-24T08:52:27Z</time>
      </trkpt>
      <trkpt lat="44.99151" lon="4.70208">
        <ele>554.82</ele>
        <time>2018-01-24T08:52:33Z</time>
      </trkpt>
      <trkpt lat="44.99154" lon="4.70209">
        <ele>555.3</ele>
        <time>2018-01-24T08:52:37Z</time>
      </trkpt>
      <trkpt lat="44.99167" lon="4.70212">
        <ele>557.22</ele>
        <time>2018-01-24T08:52:46Z</time>
      </trkpt>
      <trkpt lat="44.99176" lon="4.70214">
        <ele>557.7</ele>
        <time>2018-01-24T08:52:54Z</time>
      </trkpt>
      <trkpt lat="44.99178" lon="4.70215">
        <ele>558.18</ele>
        <time>2018-01-24T08:52:56Z</time>
      </trkpt>
      <trkpt lat="44.99187" lon="4.70223">
        <ele>559.14</ele>
        <time>2018-01-24T08:53:05Z</time>
      </trkpt>
      <trkpt lat="44.99188" lon="4.70226">
        <ele>560.11</ele>
        <time>2018-01-24T08:53:07Z</time>
      </trkpt>
      <trkpt lat="44.99193" lon="4.70239">
        <ele>561.07</ele>
        <time>2018-01-24T08:53:16Z</time>
      </trkpt>
      <trkpt lat="44.99199" lon="4.70247">
        <ele>561.55</ele>
        <time>2018-01-24T08:53:23Z</time>
      </trkpt>
      <trkpt lat="44.99202" lon="4.7025">
        <ele>561.55</ele>
        <time>2018-01-24T08:53:27Z</time>
      </trkpt>
      <trkpt lat="44.99207" lon="4.70266">
        <ele>562.51</ele>
        <time>2018-01-24T08:53:36Z</time>
      </trkpt>
      <trkpt lat="44.99209" lon="4.70282">
        <ele>563.95</ele>
        <time>2018-01-24T08:53:45Z</time>
      </trkpt>
      <trkpt lat="44.99209" lon="4.70283">
        <ele>563.95</ele>
        <time>2018-01-24T08:53:46Z</time>
      </trkpt>
      <trkpt lat="44.99209" lon="4.70288">
        <ele>563.95</ele>
        <time>2018-01-24T08:53:49Z</time>
      </trkpt>
      <trkpt lat="44.99211" lon="4.70298">
        <ele>565.39</ele>
        <time>2018-01-24T08:53:57Z</time>
      </trkpt>
      <trkpt lat="44.99212" lon="4.70307">
        <ele>566.83</ele>
        <time>2018-01-24T08:54:07Z</time>
      </trkpt>
      <trkpt lat="44.99212" lon="4.70316">
        <ele>568.28</ele>
        <time>2018-01-24T08:54:16Z</time>
      </trkpt>
      <trkpt lat="44.99209" lon="4.70329">
        <ele>569.72</ele>
        <time>2018-01-24T08:54:24Z</time>
      </trkpt>
      <trkpt lat="44.99209" lon="4.70338">
        <ele>571.16</ele>
        <time>2018-01-24T08:54:33Z</time>
      </trkpt>
      <trkpt lat="44.99207" lon="4.70347">
        <ele>571.16</ele>
        <time>2018-01-24T08:54:41Z</time>
      </trkpt>
      <trkpt lat="44.99205" lon="4.70359">
        <ele>572.12</ele>
        <time>2018-01-24T08:54:49Z</time>
      </trkpt>
      <trkpt lat="44.99203" lon="4.7037">
        <ele>573.08</ele>
        <time>2018-01-24T08:54:55Z</time>
      </trkpt>
      <trkpt lat="44.99203" lon="4.70375">
        <ele>574.04</ele>
        <time>2018-01-24T08:54:57Z</time>
      </trkpt>
      <trkpt lat="44.99201" lon="4.70394">
        <ele>574.04</ele>
        <time>2018-01-24T08:55:06Z</time>
      </trkpt>
      <trkpt lat="44.992" lon="4.70399">
        <ele>574.53</ele>
        <time>2018-01-24T08:55:08Z</time>
      </trkpt>
      <trkpt lat="44.99196" lon="4.70406">
        <ele>574.53</ele>
        <time>2018-01-24T08:55:12Z</time>
      </trkpt>
      <trkpt lat="44.99177" lon="4.70422">
        <ele>575.97</ele>
        <time>2018-01-24T08:55:23Z</time>
      </trkpt>
      <trkpt lat="44.99164" lon="4.70429">
        <ele>576.45</ele>
        <time>2018-01-24T08:55:31Z</time>
      </trkpt>
      <trkpt lat="44.99153" lon="4.7043">
        <ele>577.89</ele>
        <time>2018-01-24T08:55:39Z</time>
      </trkpt>
      <trkpt lat="44.99143" lon="4.70433">
        <ele>578.37</ele>
        <time>2018-01-24T08:55:45Z</time>
      </trkpt>
      <trkpt lat="44.99128" lon="4.70435">
        <ele>579.81</ele>
        <time>2018-01-24T08:55:54Z</time>
      </trkpt>
      <trkpt lat="44.99116" lon="4.7044">
        <ele>581.25</ele>
        <time>2018-01-24T08:56:03Z</time>
      </trkpt>
      <trkpt lat="44.99108" lon="4.7044">
        <ele>582.22</ele>
        <time>2018-01-24T08:56:10Z</time>
      </trkpt>
      <trkpt lat="44.99095" lon="4.70441">
        <ele>583.66</ele>
        <time>2018-01-24T08:56:18Z</time>
      </trkpt>
      <trkpt lat="44.99086" lon="4.70439">
        <ele>584.14</ele>
        <time>2018-01-24T08:56:23Z</time>
      </trkpt>
      <trkpt lat="44.99077" lon="4.70437">
        <ele>586.06</ele>
        <time>2018-01-24T08:56:31Z</time>
      </trkpt>
      <trkpt lat="44.99075" lon="4.70437">
        <ele>586.06</ele>
        <time>2018-01-24T08:56:32Z</time>
      </trkpt>
      <trkpt lat="44.99066" lon="4.70439">
        <ele>587.5</ele>
        <time>2018-01-24T08:56:39Z</time>
      </trkpt>
      <trkpt lat="44.99063" lon="4.70446">
        <ele>587.5</ele>
        <time>2018-01-24T08:56:46Z</time>
      </trkpt>
      <trkpt lat="44.99061" lon="4.70452">
        <ele>587.5</ele>
        <time>2018-01-24T08:56:58Z</time>
      </trkpt>
      <trkpt lat="44.9906" lon="4.70457">
        <ele>587.5</ele>
        <time>2018-01-24T08:57:08Z</time>
      </trkpt>
      <trkpt lat="44.99057" lon="4.7046">
        <ele>587.98</ele>
        <time>2018-01-24T08:57:15Z</time>
      </trkpt>
      <trkpt lat="44.99061" lon="4.70461">
        <ele>587.98</ele>
        <time>2018-01-24T08:57:29Z</time>
      </trkpt>
      <trkpt lat="44.9906" lon="4.70463">
        <ele>588.46</ele>
        <time>2018-01-24T08:57:48Z</time>
      </trkpt>
      <trkpt lat="44.99059" lon="4.70467">
        <ele>587.98</ele>
        <time>2018-01-24T08:58:01Z</time>
      </trkpt>
      <trkpt lat="44.99053" lon="4.70464">
        <ele>587.98</ele>
        <time>2018-01-24T08:58:11Z</time>
      </trkpt>
      <trkpt lat="44.99053" lon="4.70467">
        <ele>588.46</ele>
        <time>2018-01-24T08:58:25Z</time>
      </trkpt>
      <trkpt lat="44.99053" lon="4.70464">
        <ele>588.46</ele>
        <time>2018-01-24T08:58:42Z</time>
      </trkpt>
      <trkpt lat="44.99053" lon="4.70468">
        <ele>588.46</ele>
        <time>2018-01-24T08:58:58Z</time>
      </trkpt>
      <trkpt lat="44.99053" lon="4.70471">
        <ele>588.95</ele>
        <time>2018-01-24T08:59:17Z</time>
      </trkpt>
      <trkpt lat="44.99049" lon="4.70477">
        <ele>589.43</ele>
        <time>2018-01-24T08:59:33Z</time>
      </trkpt>
      <trkpt lat="44.99052" lon="4.70476">
        <ele>589.91</ele>
        <time>2018-01-24T08:59:48Z</time>
      </trkpt>
      <trkpt lat="44.99058" lon="4.70471">
        <ele>589.43</ele>
        <time>2018-01-24T09:00:09Z</time>
      </trkpt>
      <trkpt lat="44.99056" lon="4.70469">
        <ele>589.91</ele>
        <time>2018-01-24T09:00:22Z</time>
      </trkpt>
      <trkpt lat="44.99052" lon="4.7047">
        <ele>589.91</ele>
        <time>2018-01-24T09:00:30Z</time>
      </trkpt>
      <trkpt lat="44.99047" lon="4.70476">
        <ele>590.39</ele>
        <time>2018-01-24T09:00:37Z</time>
      </trkpt>
      <trkpt lat="44.99045" lon="4.70479">
        <ele>590.87</ele>
        <time>2018-01-24T09:00:40Z</time>
      </trkpt>
      <trkpt lat="44.99044" lon="4.70497">
        <ele>591.35</ele>
        <time>2018-01-24T09:00:50Z</time>
      </trkpt>
      <trkpt lat="44.99045" lon="4.70508">
        <ele>592.31</ele>
        <time>2018-01-24T09:00:57Z</time>
      </trkpt>
      <trkpt lat="44.99047" lon="4.70523">
        <ele>592.31</ele>
        <time>2018-01-24T09:01:05Z</time>
      </trkpt>
      <trkpt lat="44.9905" lon="4.70544">
        <ele>593.27</ele>
        <time>2018-01-24T09:01:16Z</time>
      </trkpt>
      <trkpt lat="44.99054" lon="4.7056">
        <ele>594.23</ele>
        <time>2018-01-24T09:01:25Z</time>
      </trkpt>
      <trkpt lat="44.99061" lon="4.70581">
        <ele>594.71</ele>
        <time>2018-01-24T09:01:36Z</time>
      </trkpt>
      <trkpt lat="44.99069" lon="4.70598">
        <ele>596.15</ele>
        <time>2018-01-24T09:01:46Z</time>
      </trkpt>
      <trkpt lat="44.99073" lon="4.70613">
        <ele>596.15</ele>
        <time>2018-01-24T09:01:55Z</time>
      </trkpt>
      <trkpt lat="44.99074" lon="4.70628">
        <ele>597.12</ele>
        <time>2018-01-24T09:02:03Z</time>
      </trkpt>
      <trkpt lat="44.99074" lon="4.70632">
        <ele>597.12</ele>
        <time>2018-01-24T09:02:05Z</time>
      </trkpt>
      <trkpt lat="44.99073" lon="4.70643">
        <ele>598.08</ele>
        <time>2018-01-24T09:02:10Z</time>
      </trkpt>
      <trkpt lat="44.99067" lon="4.70664">
        <ele>598.08</ele>
        <time>2018-01-24T09:02:21Z</time>
      </trkpt>
      <trkpt lat="44.9906" lon="4.7068">
        <ele>598.56</ele>
        <time>2018-01-24T09:02:31Z</time>
      </trkpt>
      <trkpt lat="44.9905" lon="4.70697">
        <ele>599.52</ele>
        <time>2018-01-24T09:02:42Z</time>
      </trkpt>
      <trkpt lat="44.99043" lon="4.70715">
        <ele>600.48</ele>
        <time>2018-01-24T09:02:51Z</time>
      </trkpt>
      <trkpt lat="44.99039" lon="4.70734">
        <ele>600.96</ele>
        <time>2018-01-24T09:03:01Z</time>
      </trkpt>
      <trkpt lat="44.99035" lon="4.70754">
        <ele>602.4</ele>
        <time>2018-01-24T09:03:11Z</time>
      </trkpt>
      <trkpt lat="44.99027" lon="4.70772">
        <ele>603.36</ele>
        <time>2018-01-24T09:03:21Z</time>
      </trkpt>
      <trkpt lat="44.99013" lon="4.70789">
        <ele>604.33</ele>
        <time>2018-01-24T09:03:34Z</time>
      </trkpt>
      <trkpt lat="44.98998" lon="4.70802">
        <ele>605.77</ele>
        <time>2018-01-24T09:03:46Z</time>
      </trkpt>
      <trkpt lat="44.98988" lon="4.7081">
        <ele>605.77</ele>
        <time>2018-01-24T09:03:55Z</time>
      </trkpt>
      <trkpt lat="44.98989" lon="4.70812">
        <ele>605.29</ele>
        <time>2018-01-24T09:04:01Z</time>
      </trkpt>
      <trkpt lat="44.98988" lon="4.70812">
        <ele>605.29</ele>
        <time>2018-01-24T09:04:03Z</time>
      </trkpt>
      <trkpt lat="44.98978" lon="4.70813">
        <ele>606.25</ele>
        <time>2018-01-24T09:04:12Z</time>
      </trkpt>
      <trkpt lat="44.98958" lon="4.70816">
        <ele>606.25</ele>
        <time>2018-01-24T09:04:25Z</time>
      </trkpt>
      <trkpt lat="44.98944" lon="4.70817">
        <ele>606.73</ele>
        <time>2018-01-24T09:04:35Z</time>
      </trkpt>
      <trkpt lat="44.98928" lon="4.70819">
        <ele>607.69</ele>
        <time>2018-01-24T09:04:46Z</time>
      </trkpt>
      <trkpt lat="44.9891" lon="4.70822">
        <ele>608.65</ele>
        <time>2018-01-24T09:04:58Z</time>
      </trkpt>
      <trkpt lat="44.98893" lon="4.7082">
        <ele>608.65</ele>
        <time>2018-01-24T09:05:09Z</time>
      </trkpt>
      <trkpt lat="44.98877" lon="4.70814">
        <ele>608.65</ele>
        <time>2018-01-24T09:05:20Z</time>
      </trkpt>
      <trkpt lat="44.98862" lon="4.70804">
        <ele>607.69</ele>
        <time>2018-01-24T09:05:31Z</time>
      </trkpt>
      <trkpt lat="44.98847" lon="4.70793">
        <ele>607.21</ele>
        <time>2018-01-24T09:05:42Z</time>
      </trkpt>
      <trkpt lat="44.98831" lon="4.7078">
        <ele>606.73</ele>
        <time>2018-01-24T09:05:54Z</time>
      </trkpt>
      <trkpt lat="44.98817" lon="4.7077">
        <ele>606.73</ele>
        <time>2018-01-24T09:06:04Z</time>
      </trkpt>
      <trkpt lat="44.98806" lon="4.70757">
        <ele>606.25</ele>
        <time>2018-01-24T09:06:14Z</time>
      </trkpt>
      <trkpt lat="44.98804" lon="4.70738">
        <ele>607.69</ele>
        <time>2018-01-24T09:06:24Z</time>
      </trkpt>
      <trkpt lat="44.98806" lon="4.70716">
        <ele>608.65</ele>
        <time>2018-01-24T09:06:34Z</time>
      </trkpt>
      <trkpt lat="44.98801" lon="4.70696">
        <ele>609.61</ele>
        <time>2018-01-24T09:06:44Z</time>
      </trkpt>
      <trkpt lat="44.98792" lon="4.70673">
        <ele>611.06</ele>
        <time>2018-01-24T09:06:56Z</time>
      </trkpt>
      <trkpt lat="44.98783" lon="4.70652">
        <ele>612.02</ele>
        <time>2018-01-24T09:07:07Z</time>
      </trkpt>
      <trkpt lat="44.98776" lon="4.70636">
        <ele>612.5</ele>
        <time>2018-01-24T09:07:17Z</time>
      </trkpt>
      <trkpt lat="44.98766" lon="4.70623">
        <ele>613.46</ele>
        <time>2018-01-24T09:07:26Z</time>
      </trkpt>
      <trkpt lat="44.98755" lon="4.70611">
        <ele>613.46</ele>
        <time>2018-01-24T09:07:35Z</time>
      </trkpt>
      <trkpt lat="44.98744" lon="4.70597">
        <ele>614.42</ele>
        <time>2018-01-24T09:07:45Z</time>
      </trkpt>
      <trkpt lat="44.98735" lon="4.70583">
        <ele>615.38</ele>
        <time>2018-01-24T09:07:54Z</time>
      </trkpt>
      <trkpt lat="44.98727" lon="4.70571">
        <ele>616.34</ele>
        <time>2018-01-24T09:08:03Z</time>
      </trkpt>
      <trkpt lat="44.98717" lon="4.70557">
        <ele>617.78</ele>
        <time>2018-01-24T09:08:13Z</time>
      </trkpt>
      <trkpt lat="44.98706" lon="4.70545">
        <ele>619.71</ele>
        <time>2018-01-24T09:08:23Z</time>
      </trkpt>
      <trkpt lat="44.98697" lon="4.70535">
        <ele>620.67</ele>
        <time>2018-01-24T09:08:31Z</time>
      </trkpt>
      <trkpt lat="44.98686" lon="4.70524">
        <ele>621.63</ele>
        <time>2018-01-24T09:08:40Z</time>
      </trkpt>
      <trkpt lat="44.98674" lon="4.70514">
        <ele>623.07</ele>
        <time>2018-01-24T09:08:51Z</time>
      </trkpt>
      <trkpt lat="44.98663" lon="4.70506">
        <ele>622.59</ele>
        <time>2018-01-24T09:09:00Z</time>
      </trkpt>
      <trkpt lat="44.98648" lon="4.70498">
        <ele>623.55</ele>
        <time>2018-01-24T09:09:11Z</time>
      </trkpt>
      <trkpt lat="44.98638" lon="4.70493">
        <ele>624.99</ele>
        <time>2018-01-24T09:09:19Z</time>
      </trkpt>
      <trkpt lat="44.98628" lon="4.70489">
        <ele>625.96</ele>
        <time>2018-01-24T09:09:27Z</time>
      </trkpt>
      <trkpt lat="44.98612" lon="4.70482">
        <ele>626.92</ele>
        <time>2018-01-24T09:09:39Z</time>
      </trkpt>
      <trkpt lat="44.98598" lon="4.70475">
        <ele>628.36</ele>
        <time>2018-01-24T09:09:49Z</time>
      </trkpt>
      <trkpt lat="44.98588" lon="4.70464">
        <ele>628.84</ele>
        <time>2018-01-24T09:09:59Z</time>
      </trkpt>
      <trkpt lat="44.98579" lon="4.70454">
        <ele>629.8</ele>
        <time>2018-01-24T09:10:08Z</time>
      </trkpt>
      <trkpt lat="44.9857" lon="4.70442">
        <ele>631.24</ele>
        <time>2018-01-24T09:10:17Z</time>
      </trkpt>
      <trkpt lat="44.98564" lon="4.70432">
        <ele>632.2</ele>
        <time>2018-01-24T09:10:25Z</time>
      </trkpt>
      <trkpt lat="44.9856" lon="4.70425">
        <ele>633.17</ele>
        <time>2018-01-24T09:10:31Z</time>
      </trkpt>
      <trkpt lat="44.98555" lon="4.70417">
        <ele>633.65</ele>
        <time>2018-01-24T09:10:38Z</time>
      </trkpt>
      <trkpt lat="44.98548" lon="4.7041">
        <ele>634.61</ele>
        <time>2018-01-24T09:10:45Z</time>
      </trkpt>
      <trkpt lat="44.98544" lon="4.70407">
        <ele>635.57</ele>
        <time>2018-01-24T09:10:49Z</time>
      </trkpt>
      <trkpt lat="44.98535" lon="4.70397">
        <ele>637.01</ele>
        <time>2018-01-24T09:10:57Z</time>
      </trkpt>
      <trkpt lat="44.98534" lon="4.70396">
        <ele>637.01</ele>
        <time>2018-01-24T09:10:58Z</time>
      </trkpt>
      <trkpt lat="44.98525" lon="4.70384">
        <ele>637.97</ele>
        <time>2018-01-24T09:11:06Z</time>
      </trkpt>
      <trkpt lat="44.98516" lon="4.70367">
        <ele>638.45</ele>
        <time>2018-01-24T09:11:15Z</time>
      </trkpt>
      <trkpt lat="44.98511" lon="4.70357">
        <ele>639.89</ele>
        <time>2018-01-24T09:11:21Z</time>
      </trkpt>
      <trkpt lat="44.98504" lon="4.70348">
        <ele>641.34</ele>
        <time>2018-01-24T09:11:29Z</time>
      </trkpt>
      <trkpt lat="44.98495" lon="4.70336">
        <ele>642.78</ele>
        <time>2018-01-24T09:11:38Z</time>
      </trkpt>
      <trkpt lat="44.98488" lon="4.70325">
        <ele>643.74</ele>
        <time>2018-01-24T09:11:46Z</time>
      </trkpt>
      <trkpt lat="44.98481" lon="4.70313">
        <ele>644.7</ele>
        <time>2018-01-24T09:11:54Z</time>
      </trkpt>
      <trkpt lat="44.98473" lon="4.70302">
        <ele>645.66</ele>
        <time>2018-01-24T09:12:03Z</time>
      </trkpt>
      <trkpt lat="44.9847" lon="4.70297">
        <ele>646.14</ele>
        <time>2018-01-24T09:12:10Z</time>
      </trkpt>
      <trkpt lat="44.98466" lon="4.70288">
        <ele>647.59</ele>
        <time>2018-01-24T09:12:18Z</time>
      </trkpt>
      <trkpt lat="44.98453" lon="4.70276">
        <ele>648.55</ele>
        <time>2018-01-24T09:12:28Z</time>
      </trkpt>
      <trkpt lat="44.98441" lon="4.70264">
        <ele>649.99</ele>
        <time>2018-01-24T09:12:37Z</time>
      </trkpt>
      <trkpt lat="44.9843" lon="4.70253">
        <ele>650.47</ele>
        <time>2018-01-24T09:12:47Z</time>
      </trkpt>
      <trkpt lat="44.98419" lon="4.70243">
        <ele>651.91</ele>
        <time>2018-01-24T09:12:56Z</time>
      </trkpt>
      <trkpt lat="44.98409" lon="4.70231">
        <ele>652.39</ele>
        <time>2018-01-24T09:13:05Z</time>
      </trkpt>
      <trkpt lat="44.98398" lon="4.70221">
        <ele>653.83</ele>
        <time>2018-01-24T09:13:14Z</time>
      </trkpt>
      <trkpt lat="44.98387" lon="4.70216">
        <ele>654.8</ele>
        <time>2018-01-24T09:13:22Z</time>
      </trkpt>
      <trkpt lat="44.98375" lon="4.70214">
        <ele>655.76</ele>
        <time>2018-01-24T09:13:31Z</time>
      </trkpt>
      <trkpt lat="44.98361" lon="4.70213">
        <ele>655.76</ele>
        <time>2018-01-24T09:13:41Z</time>
      </trkpt>
      <trkpt lat="44.98344" lon="4.7021">
        <ele>655.76</ele>
        <time>2018-01-24T09:13:53Z</time>
      </trkpt>
      <trkpt lat="44.98328" lon="4.70208">
        <ele>655.76</ele>
        <time>2018-01-24T09:14:04Z</time>
      </trkpt>
      <trkpt lat="44.98313" lon="4.70207">
        <ele>656.24</ele>
        <time>2018-01-24T09:14:15Z</time>
      </trkpt>
      <trkpt lat="44.98299" lon="4.70206">
        <ele>656.72</ele>
        <time>2018-01-24T09:14:25Z</time>
      </trkpt>
      <trkpt lat="44.9829" lon="4.70205">
        <ele>657.2</ele>
        <time>2018-01-24T09:14:34Z</time>
      </trkpt>
      <trkpt lat="44.98289" lon="4.70204">
        <ele>657.2</ele>
        <time>2018-01-24T09:14:41Z</time>
      </trkpt>
      <trkpt lat="44.98289" lon="4.70202">
        <ele>657.68</ele>
        <time>2018-01-24T09:14:54Z</time>
      </trkpt>
      <trkpt lat="44.98289" lon="4.70203">
        <ele>657.68</ele>
        <time>2018-01-24T09:15:06Z</time>
      </trkpt>
      <trkpt lat="44.98287" lon="4.70202">
        <ele>657.68</ele>
        <time>2018-01-24T09:15:21Z</time>
      </trkpt>
      <trkpt lat="44.98287" lon="4.70201">
        <ele>657.68</ele>
        <time>2018-01-24T09:15:37Z</time>
      </trkpt>
      <trkpt lat="44.98286" lon="4.70203">
        <ele>658.16</ele>
        <time>2018-01-24T09:15:46Z</time>
      </trkpt>
      <trkpt lat="44.98288" lon="4.70201">
        <ele>658.16</ele>
        <time>2018-01-24T09:16:05Z</time>
      </trkpt>
      <trkpt lat="44.98287" lon="4.70203">
        <ele>657.68</ele>
        <time>2018-01-24T09:16:23Z</time>
      </trkpt>
      <trkpt lat="44.98285" lon="4.70204">
        <ele>657.68</ele>
        <time>2018-01-24T09:16:45Z</time>
      </trkpt>
      <trkpt lat="44.98285" lon="4.70205">
        <ele>658.16</ele>
        <time>2018-01-24T09:17:09Z</time>
      </trkpt>
      <trkpt lat="44.98287" lon="4.70205">
        <ele>658.64</ele>
        <time>2018-01-24T09:17:24Z</time>
      </trkpt>
      <trkpt lat="44.98286" lon="4.70203">
        <ele>659.12</ele>
        <time>2018-01-24T09:17:42Z</time>
      </trkpt>
      <trkpt lat="44.98285" lon="4.70204">
        <ele>658.64</ele>
        <time>2018-01-24T09:17:53Z</time>
      </trkpt>
      <trkpt lat="44.98286" lon="4.70202">
        <ele>659.6</ele>
        <time>2018-01-24T09:18:10Z</time>
      </trkpt>
      <trkpt lat="44.98285" lon="4.702">
        <ele>659.12</ele>
        <time>2018-01-24T09:18:14Z</time>
      </trkpt>
      <trkpt lat="44.98288" lon="4.70192">
        <ele>658.64</ele>
        <time>2018-01-24T09:18:18Z</time>
      </trkpt>
      <trkpt lat="44.98292" lon="4.70184">
        <ele>658.64</ele>
        <time>2018-01-24T09:18:26Z</time>
      </trkpt>
      <trkpt lat="44.98292" lon="4.70184">
        <ele>658.16</ele>
        <time>2018-01-24T09:18:35Z</time>
      </trkpt>
      <trkpt lat="44.98291" lon="4.70184">
        <ele>658.16</ele>
        <time>2018-01-24T09:18:51Z</time>
      </trkpt>
      <trkpt lat="44.98294" lon="4.70183">
        <ele>657.68</ele>
        <time>2018-01-24T09:19:05Z</time>
      </trkpt>
      <trkpt lat="44.98303" lon="4.70171">
        <ele>656.72</ele>
        <time>2018-01-24T09:19:14Z</time>
      </trkpt>
      <trkpt lat="44.9831" lon="4.70157">
        <ele>655.76</ele>
        <time>2018-01-24T09:19:23Z</time>
      </trkpt>
      <trkpt lat="44.98314" lon="4.70139">
        <ele>654.31</ele>
        <time>2018-01-24T09:19:33Z</time>
      </trkpt>
      <trkpt lat="44.98318" lon="4.70123">
        <ele>652.39</ele>
        <time>2018-01-24T09:19:42Z</time>
      </trkpt>
      <trkpt lat="44.98324" lon="4.70104">
        <ele>650.47</ele>
        <time>2018-01-24T09:19:52Z</time>
      </trkpt>
      <trkpt lat="44.98328" lon="4.70096">
        <ele>649.99</ele>
        <time>2018-01-24T09:19:57Z</time>
      </trkpt>
      <trkpt lat="44.98336" lon="4.7008">
        <ele>648.55</ele>
        <time>2018-01-24T09:20:07Z</time>
      </trkpt>
      <trkpt lat="44.98342" lon="4.70074">
        <ele>647.59</ele>
        <time>2018-01-24T09:20:13Z</time>
      </trkpt>
      <trkpt lat="44.98346" lon="4.70068">
        <ele>645.18</ele>
        <time>2018-01-24T09:20:20Z</time>
      </trkpt>
      <trkpt lat="44.9835" lon="4.70062">
        <ele>643.74</ele>
        <time>2018-01-24T09:20:26Z</time>
      </trkpt>
      <trkpt lat="44.98349" lon="4.70047">
        <ele>642.78</ele>
        <time>2018-01-24T09:20:34Z</time>
      </trkpt>
      <trkpt lat="44.9835" lon="4.70034">
        <ele>640.86</ele>
        <time>2018-01-24T09:20:42Z</time>
      </trkpt>
      <trkpt lat="44.9835" lon="4.70018">
        <ele>638.93</ele>
        <time>2018-01-24T09:20:51Z</time>
      </trkpt>
      <trkpt lat="44.9835" lon="4.70011">
        <ele>637.97</ele>
        <time>2018-01-24T09:20:55Z</time>
      </trkpt>
      <trkpt lat="44.98355" lon="4.69997">
        <ele>636.05</ele>
        <time>2018-01-24T09:21:04Z</time>
      </trkpt>
      <trkpt lat="44.98355" lon="4.69988">
        <ele>635.57</ele>
        <time>2018-01-24T09:21:11Z</time>
      </trkpt>
      <trkpt lat="44.98357" lon="4.69981">
        <ele>634.13</ele>
        <time>2018-01-24T09:21:17Z</time>
      </trkpt>
      <trkpt lat="44.98361" lon="4.69974">
        <ele>632.2</ele>
        <time>2018-01-24T09:21:24Z</time>
      </trkpt>
      <trkpt lat="44.98362" lon="4.69965">
        <ele>630.28</ele>
        <time>2018-01-24T09:21:31Z</time>
      </trkpt>
      <trkpt lat="44.9836" lon="4.69961">
        <ele>630.28</ele>
        <time>2018-01-24T09:21:34Z</time>
      </trkpt>
      <trkpt lat="44.98359" lon="4.69958">
        <ele>629.32</ele>
        <time>2018-01-24T09:21:36Z</time>
      </trkpt>
      <trkpt lat="44.98359" lon="4.69944">
        <ele>628.36</ele>
        <time>2018-01-24T09:21:43Z</time>
      </trkpt>
      <trkpt lat="44.98358" lon="4.69925">
        <ele>626.44</ele>
        <time>2018-01-24T09:21:53Z</time>
      </trkpt>
      <trkpt lat="44.98358" lon="4.69912">
        <ele>624.03</ele>
        <time>2018-01-24T09:22:01Z</time>
      </trkpt>
      <trkpt lat="44.98359" lon="4.69902">
        <ele>622.59</ele>
        <time>2018-01-24T09:22:07Z</time>
      </trkpt>
      <trkpt lat="44.98359" lon="4.69888">
        <ele>620.67</ele>
        <time>2018-01-24T09:22:15Z</time>
      </trkpt>
      <trkpt lat="44.98359" lon="4.69883">
        <ele>620.19</ele>
        <time>2018-01-24T09:22:18Z</time>
      </trkpt>
      <trkpt lat="44.98358" lon="4.69864">
        <ele>617.78</ele>
        <time>2018-01-24T09:22:28Z</time>
      </trkpt>
      <trkpt lat="44.98357" lon="4.69861">
        <ele>616.82</ele>
        <time>2018-01-24T09:22:30Z</time>
      </trkpt>
      <trkpt lat="44.98355" lon="4.69858">
        <ele>616.82</ele>
        <time>2018-01-24T09:22:37Z</time>
      </trkpt>
      <trkpt lat="44.98355" lon="4.69851">
        <ele>616.34</ele>
        <time>2018-01-24T09:22:44Z</time>
      </trkpt>
      <trkpt lat="44.98355" lon="4.69842">
        <ele>614.9</ele>
        <time>2018-01-24T09:22:50Z</time>
      </trkpt>
      <trkpt lat="44.98355" lon="4.69838">
        <ele>614.42</ele>
        <time>2018-01-24T09:22:52Z</time>
      </trkpt>
      <trkpt lat="44.98353" lon="4.69828">
        <ele>613.46</ele>
        <time>2018-01-24T09:22:59Z</time>
      </trkpt>
      <trkpt lat="44.98351" lon="4.69819">
        <ele>612.5</ele>
        <time>2018-01-24T09:23:05Z</time>
      </trkpt>
      <trkpt lat="44.9835" lon="4.69804">
        <ele>611.06</ele>
        <time>2018-01-24T09:23:14Z</time>
      </trkpt>
      <trkpt lat="44.98349" lon="4.69792">
        <ele>609.61</ele>
        <time>2018-01-24T09:23:21Z</time>
      </trkpt>
      <trkpt lat="44.98346" lon="4.69778">
        <ele>608.17</ele>
        <time>2018-01-24T09:23:29Z</time>
      </trkpt>
      <trkpt lat="44.98344" lon="4.69773">
        <ele>607.21</ele>
        <time>2018-01-24T09:23:32Z</time>
      </trkpt>
      <trkpt lat="44.98338" lon="4.69753">
        <ele>605.77</ele>
        <time>2018-01-24T09:23:42Z</time>
      </trkpt>
      <trkpt lat="44.98333" lon="4.69734">
        <ele>604.33</ele>
        <time>2018-01-24T09:23:51Z</time>
      </trkpt>
      <trkpt lat="44.98327" lon="4.6972">
        <ele>602.88</ele>
        <time>2018-01-24T09:23:59Z</time>
      </trkpt>
      <trkpt lat="44.98326" lon="4.69712">
        <ele>601.92</ele>
        <time>2018-01-24T09:24:06Z</time>
      </trkpt>
      <trkpt lat="44.98324" lon="4.697">
        <ele>600.96</ele>
        <time>2018-01-24T09:24:13Z</time>
      </trkpt>
      <trkpt lat="44.98323" lon="4.69686">
        <ele>600.48</ele>
        <time>2018-01-24T09:24:21Z</time>
      </trkpt>
      <trkpt lat="44.98322" lon="4.69684">
        <ele>600</ele>
        <time>2018-01-24T09:24:22Z</time>
      </trkpt>
      <trkpt lat="44.98323" lon="4.69669">
        <ele>598.56</ele>
        <time>2018-01-24T09:24:30Z</time>
      </trkpt>
      <trkpt lat="44.98323" lon="4.69658">
        <ele>597.6</ele>
        <time>2018-01-24T09:24:36Z</time>
      </trkpt>
      <trkpt lat="44.98326" lon="4.69639">
        <ele>595.67</ele>
        <time>2018-01-24T09:24:47Z</time>
      </trkpt>
      <trkpt lat="44.98327" lon="4.69624">
        <ele>594.71</ele>
        <time>2018-01-24T09:24:56Z</time>
      </trkpt>
      <trkpt lat="44.98327" lon="4.69611">
        <ele>593.75</ele>
        <time>2018-01-24T09:25:05Z</time>
      </trkpt>
      <trkpt lat="44.9833" lon="4.69601">
        <ele>591.83</ele>
        <time>2018-01-24T09:25:13Z</time>
      </trkpt>
      <trkpt lat="44.98335" lon="4.6959">
        <ele>590.87</ele>
        <time>2018-01-24T09:25:22Z</time>
      </trkpt>
      <trkpt lat="44.98344" lon="4.69578">
        <ele>589.91</ele>
        <time>2018-01-24T09:25:30Z</time>
      </trkpt>
      <trkpt lat="44.98351" lon="4.69572">
        <ele>588.95</ele>
        <time>2018-01-24T09:25:37Z</time>
      </trkpt>
      <trkpt lat="44.98364" lon="4.69564">
        <ele>588.95</ele>
        <time>2018-01-24T09:25:46Z</time>
      </trkpt>
      <trkpt lat="44.98365" lon="4.69563">
        <ele>588.46</ele>
        <time>2018-01-24T09:25:47Z</time>
      </trkpt>
      <trkpt lat="44.98383" lon="4.69563">
        <ele>587.98</ele>
        <time>2018-01-24T09:25:57Z</time>
      </trkpt>
      <trkpt lat="44.98385" lon="4.69562">
        <ele>587.98</ele>
        <time>2018-01-24T09:25:58Z</time>
      </trkpt>
      <trkpt lat="44.98397" lon="4.69561">
        <ele>587.02</ele>
        <time>2018-01-24T09:26:06Z</time>
      </trkpt>
      <trkpt lat="44.98408" lon="4.6956">
        <ele>587.5</ele>
        <time>2018-01-24T09:26:12Z</time>
      </trkpt>
      <trkpt lat="44.9842" lon="4.69558">
        <ele>584.62</ele>
        <time>2018-01-24T09:26:21Z</time>
      </trkpt>
      <trkpt lat="44.98429" lon="4.69557">
        <ele>583.18</ele>
        <time>2018-01-24T09:26:30Z</time>
      </trkpt>
      <trkpt lat="44.98438" lon="4.69556">
        <ele>581.25</ele>
        <time>2018-01-24T09:26:37Z</time>
      </trkpt>
      <trkpt lat="44.98447" lon="4.69558">
        <ele>580.29</ele>
        <time>2018-01-24T09:26:45Z</time>
      </trkpt>
      <trkpt lat="44.98454" lon="4.69558">
        <ele>578.85</ele>
        <time>2018-01-24T09:26:53Z</time>
      </trkpt>
      <trkpt lat="44.98463" lon="4.69558">
        <ele>577.41</ele>
        <time>2018-01-24T09:27:00Z</time>
      </trkpt>
      <trkpt lat="44.98469" lon="4.69557">
        <ele>575.97</ele>
        <time>2018-01-24T09:27:07Z</time>
      </trkpt>
      <trkpt lat="44.98477" lon="4.69554">
        <ele>575.49</ele>
        <time>2018-01-24T09:27:13Z</time>
      </trkpt>
      <trkpt lat="44.98485" lon="4.69551">
        <ele>574.53</ele>
        <time>2018-01-24T09:27:20Z</time>
      </trkpt>
      <trkpt lat="44.98492" lon="4.69546">
        <ele>572.12</ele>
        <time>2018-01-24T09:27:27Z</time>
      </trkpt>
      <trkpt lat="44.98497" lon="4.69546">
        <ele>571.16</ele>
        <time>2018-01-24T09:27:31Z</time>
      </trkpt>
      <trkpt lat="44.98507" lon="4.69553">
        <ele>569.24</ele>
        <time>2018-01-24T09:27:39Z</time>
      </trkpt>
      <trkpt lat="44.9851" lon="4.69561">
        <ele>567.32</ele>
        <time>2018-01-24T09:27:46Z</time>
      </trkpt>
      <trkpt lat="44.98518" lon="4.69569">
        <ele>566.35</ele>
        <time>2018-01-24T09:27:55Z</time>
      </trkpt>
      <trkpt lat="44.98523" lon="4.69567">
        <ele>564.43</ele>
        <time>2018-01-24T09:28:00Z</time>
      </trkpt>
      <trkpt lat="44.98526" lon="4.69564">
        <ele>563.95</ele>
        <time>2018-01-24T09:28:03Z</time>
      </trkpt>
      <trkpt lat="44.98534" lon="4.69549">
        <ele>561.55</ele>
        <time>2018-01-24T09:28:12Z</time>
      </trkpt>
      <trkpt lat="44.98539" lon="4.69538">
        <ele>560.59</ele>
        <time>2018-01-24T09:28:19Z</time>
      </trkpt>
      <trkpt lat="44.98541" lon="4.69535">
        <ele>560.11</ele>
        <time>2018-01-24T09:28:21Z</time>
      </trkpt>
      <trkpt lat="44.98544" lon="4.69534">
        <ele>559.62</ele>
        <time>2018-01-24T09:28:23Z</time>
      </trkpt>
      <trkpt lat="44.98552" lon="4.69519">
        <ele>557.22</ele>
        <time>2018-01-24T09:28:33Z</time>
      </trkpt>
      <trkpt lat="44.98551" lon="4.69512">
        <ele>556.74</ele>
        <time>2018-01-24T09:28:40Z</time>
      </trkpt>
      <trkpt lat="44.98552" lon="4.69501">
        <ele>554.82</ele>
        <time>2018-01-24T09:28:48Z</time>
      </trkpt>
      <trkpt lat="44.98552" lon="4.695">
        <ele>555.3</ele>
        <time>2018-01-24T09:28:52Z</time>
      </trkpt>
      <trkpt lat="44.98552" lon="4.69479">
        <ele>552.9</ele>
        <time>2018-01-24T09:29:03Z</time>
      </trkpt>
      <trkpt lat="44.98549" lon="4.69456">
        <ele>550.01</ele>
        <time>2018-01-24T09:29:14Z</time>
      </trkpt>
      <trkpt lat="44.98546" lon="4.69452">
        <ele>550.01</ele>
        <time>2018-01-24T09:29:21Z</time>
      </trkpt>
      <trkpt lat="44.98545" lon="4.69443">
        <ele>549.05</ele>
        <time>2018-01-24T09:29:29Z</time>
      </trkpt>
      <trkpt lat="44.98545" lon="4.69422">
        <ele>547.13</ele>
        <time>2018-01-24T09:29:40Z</time>
      </trkpt>
      <trkpt lat="44.98545" lon="4.694">
        <ele>545.69</ele>
        <time>2018-01-24T09:29:52Z</time>
      </trkpt>
      <trkpt lat="44.98552" lon="4.69388">
        <ele>544.72</ele>
        <time>2018-01-24T09:30:00Z</time>
      </trkpt>
      <trkpt lat="44.98562" lon="4.69379">
        <ele>542.8</ele>
        <time>2018-01-24T09:30:09Z</time>
      </trkpt>
      <trkpt lat="44.98571" lon="4.69365">
        <ele>540.4</ele>
        <time>2018-01-24T09:30:18Z</time>
      </trkpt>
      <trkpt lat="44.98573" lon="4.6936">
        <ele>538.96</ele>
        <time>2018-01-24T09:30:22Z</time>
      </trkpt>
      <trkpt lat="44.9858" lon="4.69347">
        <ele>536.55</ele>
        <time>2018-01-24T09:30:33Z</time>
      </trkpt>
      <trkpt lat="44.9858" lon="4.69345">
        <ele>536.55</ele>
        <time>2018-01-24T09:30:34Z</time>
      </trkpt>
      <trkpt lat="44.98589" lon="4.69335">
        <ele>534.63</ele>
        <time>2018-01-24T09:30:42Z</time>
      </trkpt>
      <trkpt lat="44.98584" lon="4.6932">
        <ele>534.63</ele>
        <time>2018-01-24T09:30:52Z</time>
      </trkpt>
      <trkpt lat="44.98581" lon="4.69315">
        <ele>535.11</ele>
        <time>2018-01-24T09:31:00Z</time>
      </trkpt>
      <trkpt lat="44.98576" lon="4.69309">
        <ele>535.11</ele>
        <time>2018-01-24T09:31:06Z</time>
      </trkpt>
      <trkpt lat="44.98565" lon="4.69298">
        <ele>536.07</ele>
        <time>2018-01-24T09:31:15Z</time>
      </trkpt>
      <trkpt lat="44.98552" lon="4.69291">
        <ele>536.55</ele>
        <time>2018-01-24T09:31:24Z</time>
      </trkpt>
      <trkpt lat="44.98549" lon="4.69291">
        <ele>536.55</ele>
        <time>2018-01-24T09:31:26Z</time>
      </trkpt>
      <trkpt lat="44.98538" lon="4.69292">
        <ele>537.51</ele>
        <time>2018-01-24T09:31:35Z</time>
      </trkpt>
      <trkpt lat="44.98525" lon="4.69296">
        <ele>537.03</ele>
        <time>2018-01-24T09:31:44Z</time>
      </trkpt>
      <trkpt lat="44.98513" lon="4.69298">
        <ele>537.03</ele>
        <time>2018-01-24T09:31:52Z</time>
      </trkpt>
      <trkpt lat="44.98501" lon="4.69299">
        <ele>537.99</ele>
        <time>2018-01-24T09:32:01Z</time>
      </trkpt>
      <trkpt lat="44.9849" lon="4.69301">
        <ele>538.48</ele>
        <time>2018-01-24T09:32:09Z</time>
      </trkpt>
      <trkpt lat="44.98484" lon="4.69303">
        <ele>539.92</ele>
        <time>2018-01-24T09:32:15Z</time>
      </trkpt>
      <trkpt lat="44.98481" lon="4.69303">
        <ele>539.92</ele>
        <time>2018-01-24T09:32:21Z</time>
      </trkpt>
      <trkpt lat="44.98473" lon="4.69306">
        <ele>540.4</ele>
        <time>2018-01-24T09:32:29Z</time>
      </trkpt>
      <trkpt lat="44.98463" lon="4.6931">
        <ele>541.84</ele>
        <time>2018-01-24T09:32:37Z</time>
      </trkpt>
      <trkpt lat="44.98452" lon="4.69313">
        <ele>543.76</ele>
        <time>2018-01-24T09:32:46Z</time>
      </trkpt>
      <trkpt lat="44.98451" lon="4.69313">
        <ele>543.76</ele>
        <time>2018-01-24T09:32:47Z</time>
      </trkpt>
      <trkpt lat="44.98444" lon="4.69314">
        <ele>544.72</ele>
        <time>2018-01-24T09:32:52Z</time>
      </trkpt>
      <trkpt lat="44.98432" lon="4.69318">
        <ele>545.69</ele>
        <time>2018-01-24T09:33:01Z</time>
      </trkpt>
      <trkpt lat="44.98429" lon="4.69317">
        <ele>546.17</ele>
        <time>2018-01-24T09:33:03Z</time>
      </trkpt>
      <trkpt lat="44.98425" lon="4.69311">
        <ele>546.65</ele>
        <time>2018-01-24T09:33:10Z</time>
      </trkpt>
      <trkpt lat="44.98426" lon="4.6931">
        <ele>547.13</ele>
        <time>2018-01-24T09:33:13Z</time>
      </trkpt>
      <trkpt lat="44.98431" lon="4.69297">
        <ele>545.2</ele>
        <time>2018-01-24T09:33:21Z</time>
      </trkpt>
      <trkpt lat="44.98435" lon="4.69288">
        <ele>544.72</ele>
        <time>2018-01-24T09:33:28Z</time>
      </trkpt>
      <trkpt lat="44.98442" lon="4.69274">
        <ele>544.24</ele>
        <time>2018-01-24T09:33:37Z</time>
      </trkpt>
      <trkpt lat="44.98448" lon="4.69262">
        <ele>543.28</ele>
        <time>2018-01-24T09:33:45Z</time>
      </trkpt>
      <trkpt lat="44.98453" lon="4.69249">
        <ele>539.92</ele>
        <time>2018-01-24T09:33:55Z</time>
      </trkpt>
      <trkpt lat="44.98452" lon="4.69247">
        <ele>539.92</ele>
        <time>2018-01-24T09:33:57Z</time>
      </trkpt>
      <trkpt lat="44.98447" lon="4.69239">
        <ele>537.51</ele>
        <time>2018-01-24T09:34:05Z</time>
      </trkpt>
      <trkpt lat="44.98446" lon="4.69238">
        <ele>537.03</ele>
        <time>2018-01-24T09:34:06Z</time>
      </trkpt>
      <trkpt lat="44.98436" lon="4.69232">
        <ele>536.55</ele>
        <time>2018-01-24T09:34:14Z</time>
      </trkpt>
      <trkpt lat="44.98434" lon="4.69217">
        <ele>534.15</ele>
        <time>2018-01-24T09:34:23Z</time>
      </trkpt>
      <trkpt lat="44.98436" lon="4.69204">
        <ele>533.19</ele>
        <time>2018-01-24T09:34:30Z</time>
      </trkpt>
      <trkpt lat="44.98438" lon="4.6919">
        <ele>531.27</ele>
        <time>2018-01-24T09:34:38Z</time>
      </trkpt>
      <trkpt lat="44.9844" lon="4.69177">
        <ele>530.79</ele>
        <time>2018-01-24T09:34:45Z</time>
      </trkpt>
      <trkpt lat="44.98445" lon="4.69167">
        <ele>528.38</ele>
        <time>2018-01-24T09:34:52Z</time>
      </trkpt>
      <trkpt lat="44.98451" lon="4.69158">
        <ele>527.42</ele>
        <time>2018-01-24T09:34:58Z</time>
      </trkpt>
      <trkpt lat="44.98456" lon="4.69146">
        <ele>525.5</ele>
        <time>2018-01-24T09:35:06Z</time>
      </trkpt>
      <trkpt lat="44.98461" lon="4.69131">
        <ele>523.58</ele>
        <time>2018-01-24T09:35:16Z</time>
      </trkpt>
      <trkpt lat="44.98463" lon="4.69115">
        <ele>521.17</ele>
        <time>2018-01-24T09:35:25Z</time>
      </trkpt>
      <trkpt lat="44.98465" lon="4.69094">
        <ele>518.77</ele>
        <time>2018-01-24T09:35:36Z</time>
      </trkpt>
      <trkpt lat="44.98466" lon="4.69073">
        <ele>516.85</ele>
        <time>2018-01-24T09:35:46Z</time>
      </trkpt>
      <trkpt lat="44.98466" lon="4.6906">
        <ele>515.4</ele>
        <time>2018-01-24T09:35:56Z</time>
      </trkpt>
      <trkpt lat="44.98466" lon="4.69051">
        <ele>513.96</ele>
        <time>2018-01-24T09:36:05Z</time>
      </trkpt>
      <trkpt lat="44.98468" lon="4.69043">
        <ele>513.48</ele>
        <time>2018-01-24T09:36:14Z</time>
      </trkpt>
      <trkpt lat="44.98469" lon="4.69035">
        <ele>512.52</ele>
        <time>2018-01-24T09:36:21Z</time>
      </trkpt>
      <trkpt lat="44.98472" lon="4.69021">
        <ele>510.12</ele>
        <time>2018-01-24T09:36:30Z</time>
      </trkpt>
      <trkpt lat="44.98473" lon="4.69008">
        <ele>508.67</ele>
        <time>2018-01-24T09:36:38Z</time>
      </trkpt>
      <trkpt lat="44.98467" lon="4.68997">
        <ele>506.75</ele>
        <time>2018-01-24T09:36:46Z</time>
      </trkpt>
      <trkpt lat="44.9846" lon="4.68988">
        <ele>504.35</ele>
        <time>2018-01-24T09:36:57Z</time>
      </trkpt>
      <trkpt lat="44.9846" lon="4.68988">
        <ele>504.83</ele>
        <time>2018-01-24T09:36:59Z</time>
      </trkpt>
      <trkpt lat="44.9846" lon="4.68966">
        <ele>503.39</ele>
        <time>2018-01-24T09:37:12Z</time>
      </trkpt>
      <trkpt lat="44.98457" lon="4.68958">
        <ele>502.91</ele>
        <time>2018-01-24T09:37:20Z</time>
      </trkpt>
      <trkpt lat="44.98456" lon="4.68953">
        <ele>501.95</ele>
        <time>2018-01-24T09:37:29Z</time>
      </trkpt>
      <trkpt lat="44.98464" lon="4.68957">
        <ele>500.5</ele>
        <time>2018-01-24T09:37:36Z</time>
      </trkpt>
      <trkpt lat="44.98465" lon="4.68957">
        <ele>500.5</ele>
        <time>2018-01-24T09:37:39Z</time>
      </trkpt>
      <trkpt lat="44.98472" lon="4.68957">
        <ele>499.54</ele>
        <time>2018-01-24T09:37:44Z</time>
      </trkpt>
      <trkpt lat="44.98477" lon="4.68955">
        <ele>499.06</ele>
        <time>2018-01-24T09:37:47Z</time>
      </trkpt>
      <trkpt lat="44.98479" lon="4.68954">
        <ele>498.58</ele>
        <time>2018-01-24T09:37:49Z</time>
      </trkpt>
      <trkpt lat="44.98492" lon="4.68949">
        <ele>497.14</ele>
        <time>2018-01-24T09:37:58Z</time>
      </trkpt>
      <trkpt lat="44.98499" lon="4.68947">
        <ele>495.7</ele>
        <time>2018-01-24T09:38:05Z</time>
      </trkpt>
      <trkpt lat="44.98508" lon="4.68945">
        <ele>495.22</ele>
        <time>2018-01-24T09:38:11Z</time>
      </trkpt>
      <trkpt lat="44.98519" lon="4.68947">
        <ele>494.26</ele>
        <time>2018-01-24T09:38:19Z</time>
      </trkpt>
      <trkpt lat="44.9853" lon="4.68946">
        <ele>493.29</ele>
        <time>2018-01-24T09:38:26Z</time>
      </trkpt>
      <trkpt lat="44.98542" lon="4.68946">
        <ele>491.85</ele>
        <time>2018-01-24T09:38:36Z</time>
      </trkpt>
      <trkpt lat="44.98552" lon="4.68945">
        <ele>490.41</ele>
        <time>2018-01-24T09:38:43Z</time>
      </trkpt>
      <trkpt lat="44.98558" lon="4.68943">
        <ele>489.45</ele>
        <time>2018-01-24T09:38:48Z</time>
      </trkpt>
      <trkpt lat="44.98568" lon="4.6894">
        <ele>488.01</ele>
        <time>2018-01-24T09:38:56Z</time>
      </trkpt>
      <trkpt lat="44.98579" lon="4.68937">
        <ele>486.56</ele>
        <time>2018-01-24T09:39:04Z</time>
      </trkpt>
      <trkpt lat="44.98587" lon="4.68936">
        <ele>485.6</ele>
        <time>2018-01-24T09:39:10Z</time>
      </trkpt>
      <trkpt lat="44.98599" lon="4.68937">
        <ele>484.64</ele>
        <time>2018-01-24T09:39:18Z</time>
      </trkpt>
      <trkpt lat="44.98609" lon="4.68938">
        <ele>482.72</ele>
        <time>2018-01-24T09:39:27Z</time>
      </trkpt>
      <trkpt lat="44.98611" lon="4.68939">
        <ele>482.72</ele>
        <time>2018-01-24T09:39:36Z</time>
      </trkpt>
      <trkpt lat="44.98614" lon="4.68938">
        <ele>482.72</ele>
        <time>2018-01-24T09:39:47Z</time>
      </trkpt>
      <trkpt lat="44.98622" lon="4.6894">
        <ele>481.76</ele>
        <time>2018-01-24T09:39:54Z</time>
      </trkpt>
      <trkpt lat="44.98627" lon="4.68939">
        <ele>481.28</ele>
        <time>2018-01-24T09:39:58Z</time>
      </trkpt>
      <trkpt lat="44.98641" lon="4.68936">
        <ele>481.28</ele>
        <time>2018-01-24T09:40:09Z</time>
      </trkpt>
      <trkpt lat="44.98645" lon="4.68934">
        <ele>481.76</ele>
        <time>2018-01-24T09:40:16Z</time>
      </trkpt>
      <trkpt lat="44.98652" lon="4.68929">
        <ele>482.24</ele>
        <time>2018-01-24T09:40:23Z</time>
      </trkpt>
      <trkpt lat="44.98653" lon="4.68924">
        <ele>482.72</ele>
        <time>2018-01-24T09:40:30Z</time>
      </trkpt>
      <trkpt lat="44.98655" lon="4.68916">
        <ele>482.72</ele>
        <time>2018-01-24T09:40:37Z</time>
      </trkpt>
      <trkpt lat="44.98654" lon="4.68908">
        <ele>483.68</ele>
        <time>2018-01-24T09:40:45Z</time>
      </trkpt>
      <trkpt lat="44.98653" lon="4.68906">
        <ele>484.16</ele>
        <time>2018-01-24T09:40:53Z</time>
      </trkpt>
      <trkpt lat="44.9865" lon="4.68902">
        <ele>484.64</ele>
        <time>2018-01-24T09:40:59Z</time>
      </trkpt>
      <trkpt lat="44.98651" lon="4.689">
        <ele>485.6</ele>
        <time>2018-01-24T09:41:06Z</time>
      </trkpt>
      <trkpt lat="44.9865" lon="4.68895">
        <ele>488.01</ele>
        <time>2018-01-24T09:41:14Z</time>
      </trkpt>
      <trkpt lat="44.98648" lon="4.68893">
        <ele>488.01</ele>
        <time>2018-01-24T09:41:18Z</time>
      </trkpt>
      <trkpt lat="44.98647" lon="4.68881">
        <ele>488.49</ele>
        <time>2018-01-24T09:41:25Z</time>
      </trkpt>
      <trkpt lat="44.98646" lon="4.68863">
        <ele>488.97</ele>
        <time>2018-01-24T09:41:35Z</time>
      </trkpt>
      <trkpt lat="44.98641" lon="4.68855">
        <ele>489.93</ele>
        <time>2018-01-24T09:41:43Z</time>
      </trkpt>
      <trkpt lat="44.98636" lon="4.68853">
        <ele>489.93</ele>
        <time>2018-01-24T09:41:53Z</time>
      </trkpt>
      <trkpt lat="44.98634" lon="4.68853">
        <ele>489.93</ele>
        <time>2018-01-24T09:41:55Z</time>
      </trkpt>
      <trkpt lat="44.98625" lon="4.6885">
        <ele>491.37</ele>
        <time>2018-01-24T09:42:04Z</time>
      </trkpt>
      <trkpt lat="44.98622" lon="4.68849">
        <ele>491.37</ele>
        <time>2018-01-24T09:42:06Z</time>
      </trkpt>
      <trkpt lat="44.9862" lon="4.68849">
        <ele>491.37</ele>
        <time>2018-01-24T09:42:07Z</time>
      </trkpt>
      <trkpt lat="44.98618" lon="4.68848">
        <ele>491.85</ele>
        <time>2018-01-24T09:42:08Z</time>
      </trkpt>
      <trkpt lat="44.98617" lon="4.68847">
        <ele>491.37</ele>
        <time>2018-01-24T09:42:09Z</time>
      </trkpt>
      <trkpt lat="44.98616" lon="4.68846">
        <ele>491.85</ele>
        <time>2018-01-24T09:42:10Z</time>
      </trkpt>
      <trkpt lat="44.98615" lon="4.68843">
        <ele>491.37</ele>
        <time>2018-01-24T09:42:12Z</time>
      </trkpt>
      <trkpt lat="44.98616" lon="4.6884">
        <ele>491.37</ele>
        <time>2018-01-24T09:42:13Z</time>
      </trkpt>
      <trkpt lat="44.98617" lon="4.68818">
        <ele>490.89</ele>
        <time>2018-01-24T09:42:22Z</time>
      </trkpt>
      <trkpt lat="44.98615" lon="4.68812">
        <ele>492.81</ele>
        <time>2018-01-24T09:42:26Z</time>
      </trkpt>
      <trkpt lat="44.9861" lon="4.68804">
        <ele>493.29</ele>
        <time>2018-01-24T09:42:34Z</time>
      </trkpt>
      <trkpt lat="44.9861" lon="4.68803">
        <ele>492.81</ele>
        <time>2018-01-24T09:42:41Z</time>
      </trkpt>
      <trkpt lat="44.98611" lon="4.68802">
        <ele>492.33</ele>
        <time>2018-01-24T09:42:51Z</time>
      </trkpt>
      <trkpt lat="44.9861" lon="4.68802">
        <ele>492.81</ele>
        <time>2018-01-24T09:42:57Z</time>
      </trkpt>
      <trkpt lat="44.98607" lon="4.68798">
        <ele>493.29</ele>
        <time>2018-01-24T09:43:07Z</time>
      </trkpt>
      <trkpt lat="44.98598" lon="4.68792">
        <ele>493.29</ele>
        <time>2018-01-24T09:43:15Z</time>
      </trkpt>
      <trkpt lat="44.98594" lon="4.68794">
        <ele>494.26</ele>
        <time>2018-01-24T09:43:22Z</time>
      </trkpt>
      <trkpt lat="44.98592" lon="4.68792">
        <ele>494.74</ele>
        <time>2018-01-24T09:43:26Z</time>
      </trkpt>
      <trkpt lat="44.98585" lon="4.68791">
        <ele>494.74</ele>
        <time>2018-01-24T09:43:32Z</time>
      </trkpt>
      <trkpt lat="44.98583" lon="4.68791">
        <ele>495.22</ele>
        <time>2018-01-24T09:43:33Z</time>
      </trkpt>
      <trkpt lat="44.98581" lon="4.68792">
        <ele>495.7</ele>
        <time>2018-01-24T09:43:34Z</time>
      </trkpt>
      <trkpt lat="44.9858" lon="4.68792">
        <ele>495.7</ele>
        <time>2018-01-24T09:43:35Z</time>
      </trkpt>
      <trkpt lat="44.9858" lon="4.68798">
        <ele>495.7</ele>
        <time>2018-01-24T09:43:42Z</time>
      </trkpt>
      <trkpt lat="44.9858" lon="4.68801">
        <ele>495.22</ele>
        <time>2018-01-24T09:43:46Z</time>
      </trkpt>
    </trkseg>
  </trk>
</gpx>